Terminal Aerodrome Forecast
Issued by NWS Bismarck, ND

Home | Current Version | Previous Version | Graphics & Text | Print | Product List | Glossary On
Versions: 1 2 3 4 5 6 7 8 9 10 11 12 13 14 15 16 17 18
000
FTUS43 KBIS 261134
TAFISN
TAF
KISN 261134Z 2612/2712 06007KT P6SM OVC025
      TEMPO 2612/2615 SCT025 OVC050
     FM261500 07008KT P6SM OVC020
     FM261900 09009KT P6SM OVC045
     FM270000 09009KT P6SM VCSH OVC015
     FM270600 06006KT 6SM -RA BR OVC005=

USA.gov is the U.S. government's official web portal to all federal, state and local government web resources and services.